首页
METAR-TAF:

METAR-TAF

机场 :

布加勒斯特, 罗马尼亚

布加勒斯特奥托佩尼-亨利·科安德国际机场

纬度: 44-33N, 经度: 026-06E, 海拔: 95米

当前天气观测

该预报发布于15分钟前的18:00 UTC
风速11节,风向西
温度 19°C
湿度 60%
气压 1014 hPa
能见度10公里或以上
少量云层高于6000英尺, 积雨云.

METAR: LROP 241800Z 26011KT 9999 FEW060CB 19/11 Q1014 R26L/19//95 R26R/19//95 NOSIG

时间: 21:15 (18:15 UTC)

预报

该预报发布于1小时和15分钟前的17:00 UTC
预报有效从24日的 18点(UTC)到 25日的 18点(UTC)
风速4节,风向多变
能见度10公里或以上
1500米以下无云,无积雨云
短暂存在
从 24日的 18点(UTC)到 24日的 20点(UTC)
散云层高于4000英尺, 积雨云.

TAF: LROP 241700Z 2418/2518 VRB04KT CAVOK TEMPO 2418/2420 SCT040CB

超过4000个机场的气象观测和天气预报(METAR&TAF报告)。

可查询的气象台以黄色和红色小点在地图上表示。

将鼠标移到小点上方,可查看气象台名称。

然后点击查看天气观测和预报。

如需切换地图:点击带黑十字的绿色按钮放大地图;点击带横线的绿色按钮缩小地图;或者点击绿色箭头查看邻近地区的地图。


METAR-TAF: